Time;durP1;ratioP1;P1;durP2;ratioP2;P2;SDS_P1;SDS_P2;PMS_P1;PMS_P2;Temp;Humidity;BMP_temperature;BMP_pressure;BME280_temperature;BME280_humidity;BME280_pressure;Samples;Min_cycle;Max_cycle;Signal;HPM_P1;HPM_P2
2021/01/17 00:01:17;;;;;;;18.30;4.87;;;;;;;-3.65;85.20;100214.71;120022;1150;22926;-62
2021/01/17 00:03:47;;;;;;;19.13;4.77;;;;;;;-3.66;85.36;100199.52;120066;1149;24879;-63
2021/01/17 00:06:18;;;;;;;15.83;3.27;;;;;;;-3.66;85.32;100200.28;120048;1150;22957;-62
2021/01/17 00:08:46;;;;;;;;;;;;;;;-3.67;85.94;100201.47;120123;1150;22954;-62
2021/01/17 00:11:17;;;;;;;16.43;4.90;;;;;;;-3.67;85.99;100204.19;120058;1150;24208;-62
2021/01/17 00:13:47;;;;;;;15.40;3.20;;;;;;;-3.68;85.42;100208.07;120187;1149;26082;-62
2021/01/17 00:16:19;;;;;;;10.93;2.47;;;;;;;-3.67;85.63;100204.19;120086;1150;24602;-64
2021/01/17 00:18:49;;;;;;;16.13;3.83;;;;;;;-3.68;85.10;100194.43;120072;1151;24561;-61
2021/01/17 00:21:18;;;;;;;;;;;;;;;-3.67;86.01;100217.05;120165;1149;22926;-62
2021/01/17 00:23:48;;;;;;;15.80;4.10;;;;;;;-3.69;85.17;100211.98;120066;1151;21566;-62
2021/01/17 00:26:18;;;;;;;15.55;2.62;;;;;;;-3.68;84.95;100207.28;120051;1150;22918;-61
2021/01/17 00:28:48;;;;;;;;;;;;;;;-3.69;85.15;100201.06;120205;1149;22958;-60
2021/01/17 00:31:17;;;;;;;13.57;2.30;;;;;;;-3.69;85.77;100211.19;120068;1150;21676;-62
2021/01/17 00:33:47;;;;;;;16.87;3.80;;;;;;;-3.68;85.65;100207.28;120057;1149;26378;-63
2021/01/17 00:36:17;;;;;;;15.18;3.12;;;;;;;-3.68;85.33;100210.02;120042;1150;22926;-61
2021/01/17 00:38:47;;;;;;;15.53;3.27;;;;;;;-3.69;85.02;100211.98;119993;1150;22929;-61
2021/01/17 00:41:17;;;;;;;13.72;3.08;;;;;;;-3.68;85.79;100201.83;120054;1150;26388;-62
2021/01/17 00:43:48;;;;;;;17.70;2.90;;;;;;;-3.68;85.58;100208.07;119994;1150;23222;-60
2021/01/17 00:46:18;;;;;;;19.13;5.17;;;;;;;-3.67;85.02;100214.31;120143;1149;22954;-63
2021/01/17 00:48:49;;;;;;;12.18;3.10;;;;;;;-3.65;84.95;100217.44;120259;1150;23061;-61
2021/01/17 00:51:20;;;;;;;13.18;2.58;;;;;;;-3.65;85.31;100222.89;120045;1150;23109;-61
2021/01/17 00:53:51;;;;;;;13.83;3.33;;;;;;;-3.64;85.67;100219.02;120190;1151;23031;-62
2021/01/17 00:56:25;;;;;;;13.27;2.60;;;;;;;-3.64;85.02;100214.32;120020;1150;23077;-64
2021/01/17 00:58:55;;;;;;;13.80;2.73;;;;;;;-3.63;84.90;100217.84;120047;1149;22954;-60
2021/01/17 01:01:25;;;;;;;11.35;3.02;;;;;;;-3.63;85.20;100223.30;120052;1150;24733;-61
2021/01/17 01:03:55;;;;;;;12.43;2.33;;;;;;;-3.63;85.15;100218.62;120032;1150;23472;-63
2021/01/17 01:06:25;;;;;;;11.00;3.15;;;;;;;-3.61;85.35;100223.69;120047;1151;23417;-63
2021/01/17 01:08:55;;;;;;;14.10;2.80;;;;;;;-3.61;85.33;100227.20;120079;1150;22914;-62
2021/01/17 01:11:24;;;;;;;;;;;;;;;-3.61;85.15;100223.69;120167;1150;23006;-61
2021/01/17 01:13:54;;;;;;;12.43;2.60;;;;;;;-3.63;85.35;100215.90;120114;1149;21643;-62
2021/01/17 01:16:24;;;;;;;10.65;2.35;;;;;;;-3.62;85.14;100228.36;120087;1150;24301;-63
2021/01/17 01:18:54;;;;;;;14.13;3.10;;;;;;;-3.64;85.57;100219.02;120170;1149;23062;-61
2021/01/17 01:21:28;;;;;;;11.70;2.75;;;;;;;-3.63;85.30;100209.66;120056;1150;22954;-63
2021/01/17 01:23:58;;;;;;;14.63;2.83;;;;;;;-3.62;84.76;100222.14;120062;1149;22937;-63
2021/01/17 01:26:37;;;;;;;15.68;2.87;;;;;;;-3.60;85.38;100219.81;120050;1150;24261;-63
2021/01/17 01:29:08;;;;;;;23.53;6.67;;;;;;;-3.57;85.17;100229.94;120100;1149;23094;-61
2021/01/17 01:31:39;;;;;;;28.67;8.60;;;;;;;-3.59;83.92;100233.06;120084;1150;28402;-62
2021/01/17 01:34:09;;;;;;;30.10;10.27;;;;;;;-3.64;83.86;100238.88;120072;1149;26683;-62
2021/01/17 01:36:42;;;;;;;39.53;13.43;;;;;;;-3.67;83.76;100228.75;120097;1150;23090;-62
2021/01/17 01:39:13;;;;;;;35.20;12.90;;;;;;;-3.71;82.99;100230.67;120139;1150;22951;-61
2021/01/17 01:41:43;;;;;;;29.95;12.15;;;;;;;-3.78;83.03;100238.03;120129;1149;25938;-60
2021/01/17 01:44:14;;;;;;;32.03;11.60;;;;;;;-3.81;83.19;100236.08;120029;1150;22922;-61
2021/01/17 01:46:44;;;;;;;32.67;10.93;;;;;;;-3.85;82.87;100240.73;120143;1151;23031;-63
2021/01/17 01:49:15;;;;;;;34.23;10.25;;;;;;;-3.91;82.78;100242.27;120150;1150;27888;-63
2021/01/17 01:51:46;;;;;;;30.20;10.70;;;;;;;-3.99;82.10;100235.22;120144;1150;22932;-63
2021/01/17 01:54:16;;;;;;;28.50;9.63;;;;;;;-4.08;82.76;100241.00;120096;1149;27285;-62
2021/01/17 01:56:46;;;;;;;31.60;9.60;;;;;;;-4.15;82.17;100240.95;120157;1149;23073;-64
2021/01/17 01:59:17;;;;;;;32.53;11.20;;;;;;;-4.19;83.42;100240.94;120026;1150;23374;-63
2021/01/17 02:01:48;;;;;;;30.17;9.17;;;;;;;-4.20;82.55;100250.27;120073;1149;22951;-62
2021/01/17 02:04:18;;;;;;;30.87;10.30;;;;;;;-4.22;82.37;100249.86;120021;1150;24605;-61
2021/01/17 02:07:15;;;;;;;30.25;9.73;;;;;;;-4.29;82.30;100244.37;120100;1151;23090;-62
2021/01/17 02:09:45;;;;;;;26.53;8.70;;;;;;;-4.36;82.46;100260.67;120069;1150;22926;-62
2021/01/17 02:12:22;;;;;;;;;;;;;;;-4.47;82.21;100251.63;120200;1150;22942;-62
2021/01/17 02:14:57;;;;;;;22.40;6.73;;;;;;;-4.59;81.24;100245.72;120088;1150;21572;-62
2021/01/17 02:17:31;;;;;;;28.53;8.23;;;;;;;-4.68;81.45;100256.92;120340;1150;22887;-62
2021/01/17 02:20:17;;;;;;;27.00;7.67;;;;;;;-4.72;82.66;100253.39;120112;1150;23076;-62
2021/01/17 02:22:58;;;;;;;24.37;5.93;;;;;;;-4.81;81.08;100261.08;120300;1149;23262;-64
2021/01/17 02:25:31;;;;;;;20.70;6.07;;;;;;;-4.90;82.00;100260.59;120107;1151;22988;-62
2021/01/17 02:28:03;;;;;;;23.70;7.77;;;;;;;-4.92;82.08;100275.77;120171;1149;22961;-65
2021/01/17 02:30:36;;;;;;;23.37;7.87;;;;;;;-4.97;81.24;100260.55;120049;1149;22876;-63
2021/01/17 02:33:12;;;;;;;19.73;5.70;;;;;;;-4.99;81.46;100255.45;120148;1150;23017;-62
2021/01/17 02:35:43;;;;;;;24.23;6.77;;;;;;;-5.07;80.85;100266.67;120150;1149;22994;-62
2021/01/17 02:38:29;;;;;;;17.05;3.70;;;;;;;-5.14;80.19;100269.30;120152;1149;23401;-62
2021/01/17 02:41:13;;;;;;;22.37;6.07;;;;;;;-5.24;80.24;100269.98;120610;1149;23014;-62
2021/01/17 02:43:45;;;;;;;22.40;5.45;;;;;;;-5.29;80.75;100273.02;120146;1149;24708;-62
2021/01/17 02:46:15;;;;;;;20.37;6.13;;;;;;;-5.37;81.04;100269.45;120118;1149;24612;-62
2021/01/17 02:48:46;;;;;;;20.88;5.33;;;;;;;-5.35;81.18;100288.11;120111;1149;27224;-62
2021/01/17 02:51:16;;;;;;;25.88;6.83;;;;;;;-5.39;80.54;100279.12;120012;1151;25963;-62
2021/01/17 02:53:50;;;;;;;20.15;5.78;;;;;;;-5.41;80.99;100276.00;120050;1150;22964;-62
2021/01/17 02:56:22;;;;;;;20.90;4.33;;;;;;;-5.43;80.73;100273.66;120161;1149;22936;-60
2021/01/17 02:58:54;;;;;;;20.33;5.03;;;;;;;-5.47;80.53;100267.39;120066;1151;22950;-62
2021/01/17 03:01:30;;;;;;;19.97;5.73;;;;;;;-5.54;80.45;100278.17;120051;1150;22974;-59
2021/01/17 03:04:06;;;;;;;18.30;4.50;;;;;;;-5.57;79.86;100280.86;120047;1149;22950;-61
2021/01/17 03:06:36;;;;;;;15.43;4.00;;;;;;;-5.68;79.28;100272.56;120111;1151;22967;-62
2021/01/17 03:09:07;;;;;;;23.27;3.90;;;;;;;-5.76;79.37;100279.86;120093;1150;23015;-62
2021/01/17 03:11:37;;;;;;;22.03;5.07;;;;;;;-5.81;80.28;100277.45;120013;1150;24750;-61
2021/01/17 03:14:09;;;;;;;16.85;4.55;;;;;;;-5.87;80.20;100276.23;120089;1150;22965;-63
2021/01/17 03:16:40;;;;;;;16.40;4.27;;;;;;;-5.91;79.63;100288.20;120139;1150;22939;-62
2021/01/17 03:19:10;;;;;;;18.17;4.33;;;;;;;-5.94;80.57;100292.44;121060;1149;25308;-63
2021/01/17 03:21:41;;;;;;;19.57;5.30;;;;;;;-5.96;80.04;100292.02;120012;1150;22926;-62
2021/01/17 03:24:11;;;;;;;18.43;4.30;;;;;;;-5.99;80.11;100297.41;120071;1149;22937;-63
2021/01/17 03:26:41;;;;;;;23.42;6.28;;;;;;;-6.04;79.70;100292.31;120077;1150;22937;-61
2021/01/17 03:29:12;;;;;;;18.48;4.92;;;;;;;-6.07;80.20;100299.26;119962;1150;26635;-62
2021/01/17 03:31:40;;;;;;;;;;;;;;;-6.10;80.18;100294.54;120205;1149;22947;-64
2021/01/17 03:34:11;;;;;;;22.70;4.70;;;;;;;-6.11;79.82;100301.14;120083;1149;24539;-62
2021/01/17 03:36:41;;;;;;;22.93;5.53;;;;;;;-6.19;79.41;100313.06;120141;1150;22951;-62
2021/01/17 03:39:11;;;;;;;21.97;5.95;;;;;;;-6.26;79.62;100314.86;120031;1150;27749;-61
2021/01/17 03:41:41;;;;;;;19.10;6.28;;;;;;;-6.31;80.19;100315.95;120071;1148;22959;-61
2021/01/17 03:44:11;;;;;;;20.50;5.45;;;;;;;-6.33;79.95;100312.81;120087;1150;24784;-61
2021/01/17 03:46:41;;;;;;;20.40;6.00;;;;;;;-6.42;79.37;100317.73;119988;1150;23363;-62
2021/01/17 03:49:11;;;;;;;17.40;4.50;;;;;;;-6.46;79.25;100329.67;120076;1150;25802;-62
2021/01/17 03:51:41;;;;;;;16.75;4.00;;;;;;;-6.60;78.27;100327.52;120012;1149;22926;-62
2021/01/17 03:54:11;;;;;;;24.10;6.62;;;;;;;-6.73;78.75;100316.05;119944;1151;22943;-63
2021/01/17 03:56:42;;;;;;;21.60;5.42;;;;;;;-6.77;79.26;100322.55;119943;1150;22922;-62
2021/01/17 03:59:11;;;;;;;;;;;;;;;-6.83;79.41;100319.34;120113;1149;26384;-62
2021/01/17 04:01:41;;;;;;;20.27;6.07;;;;;;;-6.85;79.59;100323.58;120041;1150;24151;-62
2021/01/17 04:04:11;;;;;;;22.02;5.83;;;;;;;-6.87;79.15;100331.30;120067;1150;22952;-63
2021/01/17 04:06:42;;;;;;;23.92;7.35;;;;;;;-6.92;79.14;100335.09;120047;1149;25029;-62
2021/01/17 04:09:12;;;;;;;19.93;4.77;;;;;;;-6.91;79.07;100333.92;120044;1150;22924;-62
2021/01/17 04:11:43;;;;;;;18.48;5.45;;;;;;;-6.93;79.35;100338.16;120140;1150;22891;-62
2021/01/17 04:14:13;;;;;;;31.68;7.70;;;;;;;-6.94;78.76;100342.80;120041;1150;23090;-62
2021/01/17 04:16:49;;;;;;;22.52;5.78;;;;;;;-6.97;79.17;100343.51;120180;1150;22958;-61
2021/01/17 04:19:20;;;;;;;28.10;7.33;;;;;;;-6.98;79.14;100352.02;120273;1149;22946;-62
2021/01/17 04:21:50;;;;;;;22.23;6.17;;;;;;;-7.05;78.64;100355.37;120044;1150;23031;-61
2021/01/17 04:24:20;;;;;;;25.57;6.60;;;;;;;-7.08;79.27;100358.81;120124;1150;22954;-60
2021/01/17 04:26:58;;;;;;;23.27;6.87;;;;;;;-7.12;78.71;100355.25;120247;1151;22941;-61
2021/01/17 04:29:28;;;;;;;26.30;8.20;;;;;;;-7.20;79.30;100355.47;120477;1150;23090;-60
2021/01/17 04:31:59;;;;;;;29.53;8.27;;;;;;;-7.23;79.21;100356.17;120202;1150;26475;-62
2021/01/17 04:34:30;;;;;;;24.33;7.17;;;;;;;-7.32;78.80;100369.94;120124;1150;22932;-62
2021/01/17 04:37:00;;;;;;;30.80;8.40;;;;;;;-7.37;79.56;100372.16;120020;1150;27694;-61
2021/01/17 04:39:29;;;;;;;;;;;;;;;-7.40;79.76;100373.64;120195;1150;22945;-63
2021/01/17 04:42:02;;;;;;;25.60;7.20;;;;;;;-7.48;78.45;100380.86;120072;1150;21558;-61
2021/01/17 04:44:36;;;;;;;34.00;10.77;;;;;;;-7.54;79.28;100387.70;120117;1150;22964;-61
2021/01/17 04:47:07;;;;;;;31.00;10.17;;;;;;;-7.56;79.78;100381.05;120142;1150;27339;-63
2021/01/17 04:49:38;;;;;;;27.13;9.20;;;;;;;-7.55;79.74;100382.61;120065;1149;26360;-60
2021/01/17 04:52:12;;;;;;;32.77;11.27;;;;;;;-7.54;79.63;100384.20;120136;1150;22926;-63
2021/01/17 04:54:44;;;;;;;32.17;7.73;;;;;;;-7.58;78.67;100388.75;120095;1150;24602;-61
2021/01/17 04:57:30;;;;;;;39.55;12.35;;;;;;;-7.70;78.64;100394.30;120126;1150;22999;-60
2021/01/17 05:00:07;;;;;;;30.33;8.93;;;;;;;-7.75;78.49;100392.64;120085;1150;24560;-61
2021/01/17 05:02:44;;;;;;;37.77;11.27;;;;;;;-7.87;78.40;100397.38;120350;1149;26817;-62
2021/01/17 05:05:20;;;;;;;22.10;6.47;;;;;;;-7.98;78.03;100399.84;120071;1150;22968;-61
2021/01/17 05:08:21;;;;;;;31.70;8.20;;;;;;;-8.08;78.73;100403.09;120188;1150;22933;-61
2021/01/17 05:11:01;;;;;;;29.90;7.37;;;;;;;-8.16;78.51;100400.55;120054;1154;22951;-63
2021/01/17 05:13:47;;;;;;;28.98;8.63;;;;;;;-8.23;78.39;100397.69;120164;1149;26089;-59
2021/01/17 05:16:18;;;;;;;25.03;6.57;;;;;;;-8.28;77.98;100406.88;120135;1150;22979;-61
2021/01/17 05:18:49;;;;;;;25.30;6.83;;;;;;;-8.35;77.96;100404.78;120093;1150;22982;-61
2021/01/17 05:21:26;;;;;;;32.37;10.20;;;;;;;-8.36;78.93;100414.02;120132;1150;27784;-62
2021/01/17 05:24:02;;;;;;;32.40;9.05;;;;;;;-8.38;78.21;100415.53;120828;1108;23052;-61
2021/01/17 05:26:35;;;;;;;23.47;5.70;;;;;;;-8.46;78.01;100400.24;120198;1148;22991;-61
2021/01/17 05:29:05;;;;;;;31.43;7.87;;;;;;;-8.56;77.54;100403.44;120161;1148;22948;-61
2021/01/17 05:31:36;;;;;;;27.32;7.17;;;;;;;-8.63;77.35;100404.06;120134;1148;23021;-62
2021/01/17 05:34:06;;;;;;;25.70;6.50;;;;;;;-8.76;77.30;100407.96;120268;1148;28595;-63
2021/01/17 05:36:36;;;;;;;25.60;7.53;;;;;;;-8.88;77.00;100399.11;120323;1149;22919;-61
2021/01/17 05:39:07;;;;;;;29.30;6.47;;;;;;;-8.95;77.62;100396.20;120234;1148;24571;-62
2021/01/17 05:41:37;;;;;;;24.27;6.47;;;;;;;-9.02;77.17;100420.37;120489;1149;27073;-63
2021/01/17 05:44:08;;;;;;;30.27;6.15;;;;;;;-9.15;77.32;100419.62;120236;1150;22934;-63
2021/01/17 05:46:37;;;;;;;;;;;;;;;-9.31;76.81;100416.07;120133;1150;22954;-63
2021/01/17 05:49:14;;;;;;;25.87;6.47;;;;;;;-9.42;76.74;100418.46;120106;1150;21575;-62
2021/01/17 05:51:44;;;;;;;26.40;6.90;;;;;;;-9.51;77.34;100417.00;120318;1149;22959;-63
2021/01/17 05:54:15;;;;;;;26.70;6.37;;;;;;;-9.58;77.42;100414.10;120240;1148;23083;-62
2021/01/17 05:56:46;;;;;;;28.57;6.85;;;;;;;-9.70;76.93;100422.99;120220;1148;22930;-63
2021/01/17 05:59:15;;;;;;;33.37;8.00;;;;;;;-9.82;77.00;100425.71;120164;1148;22954;-62
2021/01/17 06:01:46;;;;;;;26.07;7.83;;;;;;;-9.83;77.65;100426.06;120175;1150;24557;-63
2021/01/17 06:04:18;;;;;;;25.60;6.97;;;;;;;-9.87;77.82;100436.77;120210;1148;22975;-62
2021/01/17 06:06:54;;;;;;;30.93;7.63;;;;;;;-9.87;78.06;100431.36;120402;1148;23141;-62
2021/01/17 06:09:26;;;;;;;34.07;7.90;;;;;;;-9.95;77.43;100440.33;120038;1150;22934;-62
2021/01/17 06:11:59;;;;;;;32.07;7.57;;;;;;;-10.04;76.89;100447.77;120209;1150;22934;-62
2021/01/17 06:14:31;;;;;;;33.83;8.23;;;;;;;-10.13;77.09;100453.30;120062;1150;22923;-63
2021/01/17 06:17:03;;;;;;;32.53;9.67;;;;;;;-10.25;77.12;100457.90;120219;1150;23010;-63
2021/01/17 06:19:36;;;;;;;28.23;8.43;;;;;;;-10.33;77.22;100464.19;120246;1148;22918;-61
2021/01/17 06:22:08;;;;;;;37.43;8.60;;;;;;;-10.33;77.89;100483.08;120184;1150;22928;-62
2021/01/17 06:24:41;;;;;;;28.13;8.40;;;;;;;-10.36;77.72;100476.43;120159;1148;23087;-62
2021/01/17 06:27:13;;;;;;;27.40;7.90;;;;;;;-10.37;77.34;100477.56;120166;1149;22934;-63
2021/01/17 06:29:44;;;;;;;32.67;9.43;;;;;;;-10.43;77.63;100475.41;120121;1148;22926;-62
2021/01/17 06:32:18;;;;;;;37.60;8.37;;;;;;;-10.46;77.25;100479.56;120187;1150;22922;-61
2021/01/17 06:34:51;;;;;;;29.83;9.30;;;;;;;-10.50;78.06;100488.65;120180;1148;22923;-62
2021/01/17 06:37:24;;;;;;;26.47;8.17;;;;;;;-10.50;78.03;100496.73;120129;1148;22932;-62
2021/01/17 06:39:56;;;;;;;28.90;7.97;;;;;;;-10.47;77.53;100507.68;120020;1148;27402;-62
2021/01/17 06:42:27;;;;;;;36.23;9.37;;;;;;;-10.54;77.41;100506.62;120209;1148;22951;-63
2021/01/17 06:44:56;;;;;;;29.35;8.20;;;;;;;-10.57;78.52;100512.70;120206;1148;23912;-62
2021/01/17 06:47:28;;;;;;;33.60;10.23;;;;;;;-10.57;77.76;100515.39;120082;1148;22934;-63
2021/01/17 06:49:58;;;;;;;32.77;8.90;;;;;;;-10.58;78.18;100522.69;120123;1148;23038;-62
2021/01/17 06:52:28;;;;;;;33.92;8.90;;;;;;;-10.56;78.29;100525.05;120247;1148;23002;-62
2021/01/17 06:54:58;;;;;;;36.45;10.58;;;;;;;-10.55;77.98;100529.34;120153;1151;22924;-63
2021/01/17 06:57:36;;;;;;;33.70;7.65;;;;;;;-10.57;78.09;100523.48;120255;1150;27264;-63
2021/01/17 07:00:17;;;;;;;38.40;9.70;;;;;;;-10.61;78.07;100528.73;120185;1148;27752;-62
2021/01/17 07:02:55;;;;;;;39.33;10.87;;;;;;;-10.61;77.88;100526.04;120229;1150;23055;-61
2021/01/17 07:05:54;;;;;;;40.13;10.87;;;;;;;-10.56;78.43;100531.24;120221;1148;23138;-62
2021/01/17 07:08:52;;;;;;;33.80;9.63;;;;;;;-10.63;78.14;100538.30;120106;1148;22931;-60
2021/01/17 07:11:55;;;;;;;39.60;11.10;;;;;;;-10.66;78.15;100542.45;120214;1148;23040;-63
2021/01/17 07:14:29;;;;;;;43.20;11.00;;;;;;;-10.69;78.00;100536.90;119838;1151;26011;-62
2021/01/17 07:17:22;;;;;;;74.20;19.70;;;;;;;-10.77;77.59;100539.36;119899;1151;27367;-62
2021/01/17 07:20:11;;;;;;;49.60;16.47;;;;;;;-10.78;77.85;100545.86;119358;1154;22928;-62
2021/01/17 07:22:43;;;;;;;57.33;16.77;;;;;;;-10.77;78.16;100558.23;119377;1154;24631;-62
2021/01/17 07:25:14;;;;;;;51.50;16.05;;;;;;;-10.71;78.25;100563.41;119546;1154;23268;-62
2021/01/17 07:28:11;;;;;;;44.60;15.57;;;;;;;-10.73;78.17;100563.75;120007;1154;22948;-62
2021/01/17 07:30:50;;;;;;;54.60;16.35;;;;;;;-10.70;78.14;100567.70;119405;1156;23416;-61
2021/01/17 07:33:27;;;;;;;50.47;14.70;;;;;;;-10.68;78.01;100568.16;119389;1156;23000;-62
2021/01/17 07:35:59;;;;;;;46.30;14.30;;;;;;;-10.70;77.97;100568.50;119342;1156;22974;-61
2021/01/17 07:38:32;;;;;;;47.25;13.70;;;;;;;-10.71;77.85;100572.30;119350;1156;26098;-62
2021/01/17 07:41:04;;;;;;;46.30;14.50;;;;;;;-10.68;78.04;100571.66;119370;1156;24396;-62
2021/01/17 07:43:37;;;;;;;53.90;14.65;;;;;;;-10.70;77.84;100571.20;119064;1148;33045;-62
2021/01/17 07:46:09;;;;;;;50.63;15.87;;;;;;;-10.71;77.70;100580.39;123352;1156;23858;-62
2021/01/17 07:48:40;;;;;;;49.10;15.73;;;;;;;-10.72;77.54;100578.83;120713;1155;23972;-62
2021/01/17 07:51:12;;;;;;;51.65;14.40;;;;;;;-10.68;77.62;100578.95;118963;1154;23916;-62
2021/01/17 07:54:24;;;;;;;43.33;12.80;;;;;;;-10.68;77.34;100581.65;123883;1152;22757;-62
2021/01/17 07:56:55;;;;;;;46.20;12.97;;;;;;;-10.71;77.23;100588.48;123332;1151;24688;-62
2021/01/17 07:59:27;;;;;;;43.80;12.83;;;;;;;-10.67;77.76;100581.31;123849;1151;25093;-62
2021/01/17 08:01:58;;;;;;;51.15;14.50;;;;;;;-10.62;77.15;100581.12;123845;1152;24992;-65
2021/01/17 08:04:32;;;;;;;46.30;13.60;;;;;;;-10.59;77.82;100583.15;123851;1151;23795;-66
2021/01/17 08:07:33;;;;;;;50.27;13.63;;;;;;;-10.52;77.22;100577.23;124027;1149;25240;-65
2021/01/17 08:10:05;;;;;;;36.00;11.20;;;;;;;-10.58;77.23;100578.55;123849;1149;24545;-64
2021/01/17 08:12:40;;;;;;;38.70;11.23;;;;;;;-10.62;77.04;100591.92;124120;1149;23691;-61
2021/01/17 08:15:28;;;;;;;44.60;13.35;;;;;;;-10.62;77.13;100591.12;124126;1149;24579;-57
2021/01/17 08:17:58;;;;;;;44.10;12.07;;;;;;;-10.57;77.69;100593.63;123826;1149;24351;-60
2021/01/17 08:20:34;;;;;;;47.33;14.70;;;;;;;-10.52;77.39;100593.41;123908;1149;23699;-62
2021/01/17 08:23:11;;;;;;;48.83;15.53;;;;;;;-10.51;77.10;100589.61;124097;1149;22878;-61
2021/01/17 08:25:59;;;;;;;56.03;16.13;;;;;;;-10.50;77.41;100583.08;123703;1149;25144;-62
2021/01/17 08:28:38;;;;;;;53.03;15.90;;;;;;;-10.49;77.11;100582.74;124020;1149;22807;-61
2021/01/17 08:31:38;;;;;;;47.43;15.23;;;;;;;-10.44;77.51;100590.65;124060;1150;23866;-61
2021/01/17 08:34:13;;;;;;;52.98;16.10;;;;;;;-10.41;77.36;100594.60;124082;1150;23729;-65
2021/01/17 08:36:44;;;;;;;52.17;17.17;;;;;;;-10.40;76.65;100590.77;124078;1149;22935;-61
2021/01/17 08:39:35;;;;;;;58.00;18.13;;;;;;;-10.38;76.82;100594.72;124066;1149;23774;-62
2021/01/17 08:42:28;;;;;;;63.85;19.62;;;;;;;-10.36;77.11;100602.48;124075;1149;23753;-62
2021/01/17 08:44:58;;;;;;;59.00;18.20;;;;;;;-10.33;77.04;100602.63;124045;1142;29342;-62
2021/01/17 08:47:28;;;;;;;71.83;21.90;;;;;;;-10.30;76.65;100606.58;124072;1149;22736;-62
2021/01/17 08:49:58;;;;;;;;;;;;;;;-10.33;76.95;100618.82;124087;1149;22702;-62
2021/01/17 08:52:28;;;;;;;63.67;18.83;;;;;;;-10.32;77.13;100619.59;124061;1149;21999;-62
2021/01/17 08:54:58;;;;;;;70.15;21.05;;;;;;;-10.28;77.06;100628.62;124093;1149;23673;-61
2021/01/17 08:57:43;;;;;;;61.23;19.50;;;;;;;-10.27;77.06;100622.09;124089;1149;23697;-62
2021/01/17 09:00:18;;;;;;;57.80;18.43;;;;;;;-10.28;77.10;100626.70;124113;1149;22685;-62
2021/01/17 09:06:26;;;;;;;54.53;17.67;;;;;;;-10.28;76.74;100640.20;123371;1151;23763;-62
2021/01/17 09:09:02;;;;;;;60.00;18.50;;;;;;;-10.23;77.39;100640.01;123916;1150;23728;-62
2021/01/17 09:11:37;;;;;;;74.23;28.73;;;;;;;-10.20;77.31;100638.56;123926;1151;23732;-61
2021/01/17 09:14:19;;;;;;;60.15;22.20;;;;;;;-10.12;77.77;100646.59;123913;1150;22768;-62
2021/01/17 09:16:52;;;;;;;54.25;17.60;;;;;;;-10.06;77.35;100644.44;120513;1151;24179;-61
2021/01/17 09:19:25;;;;;;;54.10;17.67;;;;;;;-10.07;76.74;100648.23;123889;1151;22708;-61
2021/01/17 09:21:57;;;;;;;56.93;18.23;;;;;;;-10.04;76.63;100642.98;123918;1151;23813;-60
2021/01/17 09:24:29;;;;;;;47.87;17.20;;;;;;;-10.01;77.26;100633.41;123974;1150;25046;-62
2021/01/17 09:27:20;;;;;;;55.63;16.97;;;;;;;-9.99;76.58;100640.06;122629;1149;26296;-60
2021/01/17 09:29:53;;;;;;;62.20;18.00;;;;;;;-10.00;76.63;100646.59;124028;1149;23868;-60
2021/01/17 09:32:24;;;;;;;46.70;15.53;;;;;;;-9.98;76.72;100646.26;124070;1149;23743;-58
2021/01/17 09:34:55;;;;;;;45.50;14.30;;;;;;;-9.95;76.75;100645.58;124040;1149;24735;-59
2021/01/17 09:37:24;;;;;;;;;;;;;;;-9.91;77.08;100657.33;124061;1149;25499;-63
2021/01/17 09:43:18;;;;;;;46.97;14.63;;;;;;;-9.92;76.30;100656.53;123266;1134;196730;-60
2021/01/17 09:45:53;;;;;;;50.23;15.47;;;;;;;-9.91;76.85;100662.73;123889;1149;22829;-60
2021/01/17 09:48:25;;;;;;;63.33;19.67;;;;;;;-9.91;76.74;100660.80;122065;1150;22959;-60
2021/01/17 09:50:56;;;;;;;57.80;19.47;;;;;;;-9.87;76.90;100663.64;123089;1149;24505;-60
2021/01/17 09:53:26;;;;;;;96.90;30.00;;;;;;;-9.84;76.72;100665.66;119511;1150;23911;-60
2021/01/17 09:56:13;;;;;;;68.00;21.80;;;;;;;-9.83;76.58;100664.55;119586;1150;23117;-59
2021/01/17 09:58:43;;;;;;;57.20;17.10;;;;;;;-9.83;76.27;100664.55;119616;1149;23004;-59
2021/01/17 10:01:19;;;;;;;76.00;25.00;;;;;;;-9.84;76.49;100662.95;124098;1149;22776;-60
2021/01/17 10:04:24;;;;;;;70.47;22.07;;;;;;;-9.80;76.71;100669.27;123749;1149;24244;-60
2021/01/17 10:06:57;;;;;;;76.20;25.50;;;;;;;-9.78;77.18;100666.23;123809;1149;23756;-59
2021/01/17 10:09:28;;;;;;;97.90;29.97;;;;;;;-9.77;76.75;100674.02;124042;1150;23724;-59
2021/01/17 10:12:00;;;;;;;83.20;26.10;;;;;;;-9.75;76.90;100677.18;124081;1150;24105;-60
2021/01/17 10:14:32;;;;;;;54.03;19.63;;;;;;;-9.74;76.70;100676.05;124048;1149;22754;-60
2021/01/17 10:17:06;;;;;;;60.43;20.37;;;;;;;-9.70;76.56;100682.36;124026;1149;24959;-59
2021/01/17 10:19:38;;;;;;;66.30;25.73;;;;;;;-9.64;77.19;100677.55;124054;1149;22848;-60
2021/01/17 10:22:12;;;;;;;65.35;23.60;;;;;;;-9.60;76.76;100689.27;123883;1150;23766;-59
2021/01/17 10:24:43;;;;;;;67.97;22.40;;;;;;;-9.58;77.27;100690.49;123860;1149;25726;-60
2021/01/17 10:27:16;;;;;;;60.77;22.17;;;;;;;-9.54;76.62;100688.73;124044;1149;24864;-61
2021/01/17 10:29:47;;;;;;;66.43;22.07;;;;;;;-9.54;76.14;100685.23;124078;1149;23858;-59
2021/01/17 10:32:18;;;;;;;52.30;16.70;;;;;;;-9.55;76.29;100691.75;124062;1149;24223;-59
2021/01/17 10:34:49;;;;;;;55.50;19.00;;;;;;;-9.56;76.33;100696.38;124008;1149;23687;-60
2021/01/17 10:37:21;;;;;;;54.13;17.33;;;;;;;-9.54;76.17;100702.25;123998;1150;23851;-57
2021/01/17 10:39:52;;;;;;;56.03;20.20;;;;;;;-9.51;76.17;100695.36;124052;1149;23754;-60
2021/01/17 10:42:30;;;;;;;42.57;14.93;;;;;;;-9.52;76.23;100696.50;124057;1150;23747;-59
2021/01/17 10:45:05;;;;;;;57.03;18.00;;;;;;;-9.50;76.61;100700.45;123994;1135;36408;-61
2021/01/17 10:48:04;;;;;;;43.93;15.67;;;;;;;-9.46;76.11;100703.27;124052;1149;23761;-61
2021/01/17 10:50:52;;;;;;;63.50;21.60;;;;;;;-9.44;76.54;100699.11;123810;1149;22760;-60
2021/01/17 10:53:29;;;;;;;50.77;15.00;;;;;;;-9.45;75.86;100694.81;123977;1149;22888;-59
2021/01/17 10:56:00;;;;;;;59.07;18.33;;;;;;;-9.45;75.96;100694.02;124048;1149;24552;-59
2021/01/17 10:58:39;;;;;;;61.63;18.60;;;;;;;-9.43;76.30;100695.27;124014;1150;22746;-60
2021/01/17 11:01:09;;;;;;;56.17;17.40;;;;;;;-9.36;77.35;100698.23;123995;1149;22831;-60
2021/01/17 11:03:42;;;;;;;66.73;22.03;;;;;;;-9.28;76.73;100696.54;124053;1150;22709;-60
2021/01/17 11:06:14;;;;;;;70.63;21.07;;;;;;;-9.23;76.36;100702.52;124022;1149;23822;-60
2021/01/17 11:08:46;;;;;;;48.97;15.87;;;;;;;-9.17;76.93;100703.10;124056;1150;22730;-59
2021/01/17 11:11:17;;;;;;;60.33;21.47;;;;;;;-9.18;76.28;100704.21;124046;1149;24854;-60
2021/01/17 11:13:58;;;;;;;61.17;21.23;;;;;;;-9.16;75.84;100710.08;124062;1148;23747;-59
2021/01/17 11:16:36;;;;;;;61.55;21.07;;;;;;;-9.18;76.11;100713.12;123971;1150;22733;-60
2021/01/17 11:19:11;;;;;;;54.47;18.10;;;;;;;-9.12;76.62;100716.39;124050;1149;22793;-59
2021/01/17 11:21:54;;;;;;;63.30;21.30;;;;;;;-9.08;75.86;100722.70;124037;1150;22728;-59
2021/01/17 11:24:33;;;;;;;59.43;20.03;;;;;;;-9.10;76.11;100722.25;123664;1149;27917;-59
2021/01/17 11:27:09;;;;;;;58.80;20.50;;;;;;;-9.07;76.49;100716.19;123955;1150;22830;-60
2021/01/17 11:29:40;;;;;;;57.95;20.70;;;;;;;-9.05;75.72;100723.95;124050;1150;23655;-58
2021/01/17 11:32:11;;;;;;;70.97;23.13;;;;;;;-9.08;75.82;100725.41;123994;1150;22804;-60
2021/01/17 11:34:42;;;;;;;98.40;29.63;;;;;;;-9.07;76.08;100720.80;124002;1150;22723;-60
2021/01/17 11:37:12;;;;;;;59.80;19.20;;;;;;;-9.07;75.97;100708.06;124023;1150;23426;-59
2021/01/17 11:39:44;;;;;;;67.10;21.33;;;;;;;-9.10;75.80;100712.23;124038;1150;24789;-59
2021/01/17 11:42:19;;;;;;;92.30;30.30;;;;;;;-9.08;76.09;100705.70;124040;1149;22759;-60
2021/01/17 11:44:49;;;;;;;90.07;28.37;;;;;;;-9.06;75.82;100709.63;123942;1141;31499;-60